sensor_id;sensor_type;location;lat;lon;timestamp;temperature;humidity
20325;DHT22;10320;49.482;11.256;2022-10-23T06:23:13;9.80;99.90
20325;DHT22;10320;49.482;11.256;2022-10-23T06:25:39;6.80;99.90
20325;DHT22;10320;49.482;11.256;2022-10-23T06:28:04;6.80;99.90
20325;DHT22;10320;49.482;11.256;2022-10-23T06:30:30;6.90;99.90
20325;DHT22;10320;49.482;11.256;2022-10-23T06:32:56;6.90;99.90
20325;DHT22;10320;49.482;11.256;2022-10-23T06:35:21;7.00;99.90
20325;DHT22;10320;49.482;11.256;2022-10-23T06:37:47;7.10;99.90
20325;DHT22;10320;49.482;11.256;2022-10-23T06:40:12;7.30;99.90
20325;DHT22;10320;49.482;11.256;2022-10-23T06:42:38;7.20;99.90
20325;DHT22;10320;49.482;11.256;2022-10-23T06:45:04;7.40;99.90
20325;DHT22;10320;49.482;11.256;2022-10-23T06:47:30;7.50;99.90
20325;DHT22;10320;49.482;11.256;2022-10-23T06:49:55;7.70;99.90
20325;DHT22;10320;49.482;11.256;2022-10-23T06:52:21;7.80;99.90
20325;DHT22;10320;49.482;11.256;2022-10-23T06:54:46;7.90;99.90
20325;DHT22;10320;49.482;11.256;2022-10-23T06:57:12;8.00;99.90
20325;DHT22;10320;49.482;11.256;2022-10-23T06:59:37;8.20;99.90
20325;DHT22;10320;49.482;11.256;2022-10-23T07:02:03;8.30;99.90
20325;DHT22;10320;49.482;11.256;2022-10-23T07:04:29;8.40;99.90
20325;DHT22;10320;49.482;11.256;2022-10-23T07:06:55;8.50;99.90
20325;DHT22;10320;49.482;11.256;2022-10-23T07:09:21;8.50;99.90
20325;DHT22;10320;49.482;11.256;2022-10-23T07:11:47;8.70;99.90
20325;DHT22;10320;49.482;11.256;2022-10-23T07:14:13;8.90;99.90
20325;DHT22;10320;49.482;11.256;2022-10-23T07:16:38;8.80;99.90
20325;DHT22;10320;49.482;11.256;2022-10-23T07:19:04;8.90;99.90
20325;DHT22;10320;49.482;11.256;2022-10-23T07:21:32;8.90;99.90
20325;DHT22;10320;49.482;11.256;2022-10-23T07:24:18;9.00;99.90
20325;DHT22;10320;49.482;11.256;2022-10-23T07:26:44;9.10;99.90
20325;DHT22;10320;49.482;11.256;2022-10-23T07:29:11;9.20;99.90
20325;DHT22;10320;49.482;11.256;2022-10-23T07:31:37;9.30;99.90
20325;DHT22;10320;49.482;11.256;2022-10-23T07:34:02;9.40;99.90
20325;DHT22;10320;49.482;11.256;2022-10-23T07:36:28;9.70;99.90
20325;DHT22;10320;49.482;11.256;2022-10-23T07:38:54;9.70;99.90
20325;DHT22;10320;49.482;11.256;2022-10-23T07:41:20;9.80;99.90
20325;DHT22;10320;49.482;11.256;2022-10-23T07:43:45;10.00;99.90
20325;DHT22;10320;49.482;11.256;2022-10-23T07:46:11;10.10;99.90
20325;DHT22;10320;49.482;11.256;2022-10-23T07:48:38;10.20;99.90
20325;DHT22;10320;49.482;11.256;2022-10-23T07:51:07;10.40;99.90
20325;DHT22;10320;49.482;11.256;2022-10-23T07:53:34;10.40;99.90
20325;DHT22;10320;49.482;11.256;2022-10-23T07:56:02;10.50;99.90
20325;DHT22;10320;49.482;11.256;2022-10-23T07:58:29;10.60;99.90
20325;DHT22;10320;49.482;11.256;2022-10-23T08:00:57;10.90;99.90
20325;DHT22;10320;49.482;11.256;2022-10-23T08:03:28;11.00;99.90
20325;DHT22;10320;49.482;11.256;2022-10-23T08:05:55;11.10;99.90
20325;DHT22;10320;49.482;11.256;2022-10-23T08:08:22;11.40;99.90
20325;DHT22;10320;49.482;11.256;2022-10-23T08:10:49;11.40;99.90
20325;DHT22;10320;49.482;11.256;2022-10-23T08:13:16;11.60;99.90
20325;DHT22;10320;49.482;11.256;2022-10-23T08:15:42;11.80;99.90
20325;DHT22;10320;49.482;11.256;2022-10-23T08:18:09;11.90;99.90
20325;DHT22;10320;49.482;11.256;2022-10-23T08:20:42;12.00;99.90
20325;DHT22;10320;49.482;11.256;2022-10-23T08:23:09;12.10;99.90
20325;DHT22;10320;49.482;11.256;2022-10-23T08:25:37;12.30;99.90
20325;DHT22;10320;49.482;11.256;2022-10-23T08:28:03;12.40;99.90
20325;DHT22;10320;49.482;11.256;2022-10-23T08:30:29;12.60;99.90
20325;DHT22;10320;49.482;11.256;2022-10-23T08:32:55;12.70;99.90
20325;DHT22;10320;49.482;11.256;2022-10-23T08:35:20;12.80;99.90
20325;DHT22;10320;49.482;11.256;2022-10-23T08:37:46;12.90;99.90
20325;DHT22;10320;49.482;11.256;2022-10-23T08:40:16;13.00;99.90
20325;DHT22;10320;49.482;11.256;2022-10-23T08:42:43;12.90;99.90
20325;DHT22;10320;49.482;11.256;2022-10-23T08:45:41;13.00;99.90
20325;DHT22;10320;49.482;11.256;2022-10-23T08:48:34;13.10;99.90
20325;DHT22;10320;49.482;11.256;2022-10-23T08:51:31;13.30;99.90
20325;DHT22;10320;49.482;11.256;2022-10-23T08:54:04;13.50;99.90
20325;DHT22;10320;49.482;11.256;2022-10-23T08:56:38;13.60;99.90
20325;DHT22;10320;49.482;11.256;2022-10-23T08:59:40;13.80;99.90
20325;DHT22;10320;49.482;11.256;2022-10-23T09:04:56;14.20;99.90
20325;DHT22;10320;49.482;11.256;2022-10-23T09:08:27;14.40;99.90
20325;DHT22;10320;49.482;11.256;2022-10-23T09:17:06;15.10;99.90
20325;DHT22;10320;49.482;11.256;2022-10-23T09:19:14;15.20;99.90
20325;DHT22;10320;49.482;11.256;2022-10-23T09:21:40;15.40;99.90
20325;DHT22;10320;49.482;11.256;2022-10-23T09:24:14;15.40;99.90
20325;DHT22;10320;49.482;11.256;2022-10-23T09:26:44;15.60;99.90
20325;DHT22;10320;49.482;11.256;2022-10-23T09:29:31;15.80;99.90
20325;DHT22;10320;49.482;11.256;2022-10-23T09:32:03;15.90;99.90
20325;DHT22;10320;49.482;11.256;2022-10-23T09:34:31;16.00;99.90
20325;DHT22;10320;49.482;11.256;2022-10-23T09:37:28;16.00;99.90
20325;DHT22;10320;49.482;11.256;2022-10-23T09:42:27;16.20;99.90
20325;DHT22;10320;49.482;11.256;2022-10-23T09:44:53;16.30;99.90
20325;DHT22;10320;49.482;11.256;2022-10-23T09:47:21;16.40;99.90
20325;DHT22;10320;49.482;11.256;2022-10-23T09:49:57;16.40;99.90
20325;DHT22;10320;49.482;11.256;2022-10-23T09:52:34;16.40;99.90
20325;DHT22;10320;49.482;11.256;2022-10-23T09:55:13;16.40;99.90
20325;DHT22;10320;49.482;11.256;2022-10-23T09:57:43;16.50;99.90
20325;DHT22;10320;49.482;11.256;2022-10-23T10:00:17;16.60;99.90
20325;DHT22;10320;49.482;11.256;2022-10-23T10:02:59;16.70;99.90
20325;DHT22;10320;49.482;11.256;2022-10-23T10:05:36;16.80;99.90
20325;DHT22;10320;49.482;11.256;2022-10-23T10:08:13;17.00;99.90
20325;DHT22;10320;49.482;11.256;2022-10-23T10:10:49;17.20;99.90
20325;DHT22;10320;49.482;11.256;2022-10-23T10:16:23;17.50;99.90
20325;DHT22;10320;49.482;11.256;2022-10-23T10:19:05;17.60;99.90
20325;DHT22;10320;49.482;11.256;2022-10-23T10:24:34;17.80;99.90
20325;DHT22;10320;49.482;11.256;2022-10-23T10:32:34;17.90;99.90
20325;DHT22;10320;49.482;11.256;2022-10-23T10:40:34;17.70;99.90
20325;DHT22;10320;49.482;11.256;2022-10-23T10:43:23;17.70;99.90
20325;DHT22;10320;49.482;11.256;2022-10-23T10:46:04;17.60;99.90
20325;DHT22;10320;49.482;11.256;2022-10-23T10:57:23;17.50;99.90
20325;DHT22;10320;49.482;11.256;2022-10-23T10:59:56;17.60;99.90
20325;DHT22;10320;49.482;11.256;2022-10-23T11:02:48;17.70;99.90
20325;DHT22;10320;49.482;11.256;2022-10-23T11:10:19;17.90;99.90
20325;DHT22;10320;49.482;11.256;2022-10-23T11:12:46;18.00;99.90
20325;DHT22;10320;49.482;11.256;2022-10-23T11:15:21;18.20;99.90
20325;DHT22;10320;49.482;11.256;2022-10-23T11:17:51;18.20;99.90
20325;DHT22;10320;49.482;11.256;2022-10-23T11:20:40;18.40;99.90
20325;DHT22;10320;49.482;11.256;2022-10-23T11:23:36;18.50;99.90
20325;DHT22;10320;49.482;11.256;2022-10-23T11:26:19;18.50;99.90
20325;DHT22;10320;49.482;11.256;2022-10-23T11:32:27;18.60;99.90
20325;DHT22;10320;49.482;11.256;2022-10-23T11:40:43;18.50;99.90
20325;DHT22;10320;49.482;11.256;2022-10-23T11:43:09;18.50;99.90
20325;DHT22;10320;49.482;11.256;2022-10-23T11:45:39;18.70;99.90
20325;DHT22;10320;49.482;11.256;2022-10-23T11:48:37;18.70;99.90
20325;DHT22;10320;49.482;11.256;2022-10-23T11:51:29;18.70;99.90
20325;DHT22;10320;49.482;11.256;2022-10-23T11:59:30;18.80;99.90
20325;DHT22;10320;49.482;11.256;2022-10-23T12:01:59;18.80;99.90
20325;DHT22;10320;49.482;11.256;2022-10-23T12:04:39;18.80;99.90
20325;DHT22;10320;49.482;11.256;2022-10-23T12:07:19;18.70;99.90
20325;DHT22;10320;49.482;11.256;2022-10-23T12:09:53;18.60;99.90
20325;DHT22;10320;49.482;11.256;2022-10-23T12:12:33;18.50;99.90
20325;DHT22;10320;49.482;11.256;2022-10-23T12:15:26;18.50;99.90
20325;DHT22;10320;49.482;11.256;2022-10-23T12:17:53;18.60;99.90
20325;DHT22;10320;49.482;11.256;2022-10-23T12:20:27;18.70;99.90
20325;DHT22;10320;49.482;11.256;2022-10-23T12:28:04;18.90;99.90
20325;DHT22;10320;49.482;11.256;2022-10-23T12:33:19;19.10;99.90
20325;DHT22;10320;49.482;11.256;2022-10-23T12:38:31;19.20;99.90
20325;DHT22;10320;49.482;11.256;2022-10-23T12:41:10;19.30;99.90
20325;DHT22;10320;49.482;11.256;2022-10-23T12:43:37;19.20;99.90
20325;DHT22;10320;49.482;11.256;2022-10-23T12:48:50;19.20;99.90
20325;DHT22;10320;49.482;11.256;2022-10-23T12:51:36;19.20;99.90
20325;DHT22;10320;49.482;11.256;2022-10-23T12:54:02;19.20;99.90
20325;DHT22;10320;49.482;11.256;2022-10-23T12:56:35;19.30;99.90
20325;DHT22;10320;49.482;11.256;2022-10-23T12:59:01;19.50;99.90
20325;DHT22;10320;49.482;11.256;2022-10-23T13:01:31;19.60;99.90
20325;DHT22;10320;49.482;11.256;2022-10-23T13:04:07;19.80;99.90
20325;DHT22;10320;49.482;11.256;2022-10-23T13:06:37;19.90;99.90
20325;DHT22;10320;49.482;11.256;2022-10-23T13:09:05;20.00;99.90
20325;DHT22;10320;49.482;11.256;2022-10-23T13:11:32;20.10;99.90
20325;DHT22;10320;49.482;11.256;2022-10-23T13:13:58;20.00;99.90
20325;DHT22;10320;49.482;11.256;2022-10-23T13:16:24;20.10;99.90
20325;DHT22;10320;49.482;11.256;2022-10-23T13:18:50;20.00;99.90
20325;DHT22;10320;49.482;11.256;2022-10-23T13:21:22;20.10;99.90
20325;DHT22;10320;49.482;11.256;2022-10-23T13:23:49;20.10;99.90
20325;DHT22;10320;49.482;11.256;2022-10-23T13:26:36;20.00;99.90
20325;DHT22;10320;49.482;11.256;2022-10-23T13:31:43;19.90;99.90
20325;DHT22;10320;49.482;11.256;2022-10-23T13:34:21;19.80;99.90
20325;DHT22;10320;49.482;11.256;2022-10-23T13:39:38;19.70;99.90
20325;DHT22;10320;49.482;11.256;2022-10-23T13:42:12;19.50;99.90
20325;DHT22;10320;49.482;11.256;2022-10-23T13:44:38;19.40;99.90
20325;DHT22;10320;49.482;11.256;2022-10-23T13:47:04;19.40;99.90
20325;DHT22;10320;49.482;11.256;2022-10-23T13:49:30;19.30;99.90
20325;DHT22;10320;49.482;11.256;2022-10-23T13:51:56;19.30;99.90
20325;DHT22;10320;49.482;11.256;2022-10-23T13:54:27;19.40;99.90
20325;DHT22;10320;49.482;11.256;2022-10-23T13:56:55;19.40;99.90
20325;DHT22;10320;49.482;11.256;2022-10-23T13:59:22;19.50;99.90
20325;DHT22;10320;49.482;11.256;2022-10-23T14:01:48;19.50;99.90
20325;DHT22;10320;49.482;11.256;2022-10-23T14:04:17;19.60;99.90
20325;DHT22;10320;49.482;11.256;2022-10-23T14:06:43;19.60;99.90
20325;DHT22;10320;49.482;11.256;2022-10-23T14:09:15;19.60;99.90
20325;DHT22;10320;49.482;11.256;2022-10-23T14:11:41;19.50;99.90
20325;DHT22;10320;49.482;11.256;2022-10-23T14:14:07;19.50;99.90
20325;DHT22;10320;49.482;11.256;2022-10-23T14:16:33;19.50;99.90
20325;DHT22;10320;49.482;11.256;2022-10-23T14:18:58;19.30;99.90
20325;DHT22;10320;49.482;11.256;2022-10-23T14:21:24;19.30;99.90
20325;DHT22;10320;49.482;11.256;2022-10-23T14:23:51;19.10;99.90
20325;DHT22;10320;49.482;11.256;2022-10-23T14:26:23;18.90;99.90
20325;DHT22;10320;49.482;11.256;2022-10-23T14:28:52;18.80;99.90
20325;DHT22;10320;49.482;11.256;2022-10-23T14:31:18;18.70;99.90
20325;DHT22;10320;49.482;11.256;2022-10-23T14:33:44;18.70;99.90
20325;DHT22;10320;49.482;11.256;2022-10-23T14:36:11;18.60;99.90
20325;DHT22;10320;49.482;11.256;2022-10-23T14:38:37;18.50;99.90
20325;DHT22;10320;49.482;11.256;2022-10-23T14:41:09;18.40;99.90
20325;DHT22;10320;49.482;11.256;2022-10-23T15:20:27;18.30;99.90
20325;DHT22;10320;49.482;11.256;2022-10-23T16:58:14;18.10;99.90
20325;DHT22;10320;49.482;11.256;2022-10-23T17:00:40;14.30;99.90
20325;DHT22;10320;49.482;11.256;2022-10-23T17:03:06;14.20;99.90
20325;DHT22;10320;49.482;11.256;2022-10-23T17:05:33;14.10;99.90
20325;DHT22;10320;49.482;11.256;2022-10-23T17:07:59;14.00;99.90
